Terminal Aerodrome Forecast
Issued by NWS

Home | Current Version | Previous Version | Text Only | Print | Product List | Glossary Off
Versions: 1 2 3 4 5 6 7 8 9 10 11 12 13 14

000
FTUS43 KMPX 202322
TAFRNH
TAF
KRNH 202322Z 2100/2124 22009KT P6SM BKN200
     FM210500 26011KT P6SM SCT250
     FM210900 29016G25KT P6SM BKN050
     FM211300 31018G27KT P6SM OVC050
     FM212200 31015G22KT P6SM SKC=

USA.gov is the U.S. government's official web portal to all federal, state and local government web resources and services.